Time;durP1;ratioP1;P1;durP2;ratioP2;P2;SDS_P1;SDS_P2;PMS_P1;PMS_P2;Temp;Humidity;BMP_temperature;BMP_pressure;BME280_temperature;BME280_humidity;BME280_pressure;Samples;Min_cycle;Max_cycle;Signal;HPM_P1;HPM_P2
2021/07/16 00:02:03;;;;;;;4.88;4.40;;;;;;;;;;5033278;28;20036;-74
2021/07/16 00:04:29;;;;;;;4.55;4.13;;;;;;;;;;5032110;28;20075;-74
2021/07/16 00:06:55;;;;;;;4.78;4.28;;;;;;;;;;5032439;28;20246;-74
2021/07/16 00:09:21;;;;;;;5.57;4.05;;;;;;;;;;5031022;28;20378;-74
2021/07/16 00:11:47;;;;;;;4.45;4.05;;;;;;;;;;5030307;28;20520;-74
2021/07/16 00:14:13;;;;;;;4.38;3.95;;;;;;;;;;5032491;28;20022;-74
2021/07/16 00:16:39;;;;;;;4.32;3.92;;;;;;;;;;5031809;28;20108;-74
2021/07/16 00:19:06;;;;;;;4.40;4.00;;;;;;;;;;5031884;28;20396;-74
2021/07/16 00:21:32;;;;;;;6.57;3.85;;;;;;;;;;5031623;28;20036;-74
2021/07/16 00:23:58;;;;;;;4.88;4.18;;;;;;;;;;5044975;28;20048;-74
2021/07/16 00:26:24;;;;;;;4.22;3.58;;;;;;;;;;5033756;28;20061;-74
2021/07/16 00:28:50;;;;;;;4.20;3.80;;;;;;;;;;5051659;28;20048;-74
2021/07/16 00:31:16;;;;;;;3.83;3.42;;;;;;;;;;5051665;28;20114;-74
2021/07/16 00:33:42;;;;;;;5.20;3.78;;;;;;;;;;5033933;28;20029;-74
2021/07/16 00:36:09;;;;;;;4.20;3.80;;;;;;;;;;5052232;28;20044;-74
2021/07/16 00:38:35;;;;;;;5.28;4.47;;;;;;;;;;5021492;28;20076;-74
2021/07/16 00:41:01;;;;;;;4.60;4.18;;;;;;;;;;5014324;28;20030;-74
2021/07/16 00:43:27;;;;;;;4.93;3.85;;;;;;;;;;5031901;28;20053;-74
2021/07/16 00:45:53;;;;;;;5.13;4.05;;;;;;;;;;5032076;28;20556;-74
2021/07/16 00:48:19;;;;;;;4.72;4.13;;;;;;;;;;5031754;28;20523;-74
2021/07/16 00:50:46;;;;;;;4.28;3.88;;;;;;;;;;5031415;28;20556;-74
2021/07/16 00:53:15;;;;;;;4.78;3.95;;;;;;;;;;5033907;28;20028;-74
2021/07/16 00:55:42;;;;;;;3.55;3.25;;;;;;;;;;5051791;28;20500;-74
2021/07/16 00:58:09;;;;;;;4.40;3.85;;;;;;;;;;5051824;28;20014;-74
2021/07/16 01:00:35;;;;;;;5.97;3.45;;;;;;;;;;5034358;28;20107;-76
2021/07/16 01:03:01;;;;;;;3.75;3.30;;;;;;;;;;5051967;28;20040;-76
2021/07/16 01:05:27;;;;;;;3.97;3.47;;;;;;;;;;5051667;28;20033;-76
2021/07/16 01:07:54;;;;;;;4.00;3.60;;;;;;;;;;5051458;28;20108;-76
2021/07/16 01:10:22;;;;;;;4.00;3.60;;;;;;;;;;5051963;28;20025;-76
2021/07/16 01:12:52;;;;;;;4.25;3.33;;;;;;;;;;5051541;28;20025;-76
2021/07/16 01:15:22;;;;;;;3.85;3.45;;;;;;;;;;5051462;28;20598;-76
2021/07/16 01:17:48;;;;;;;4.20;3.47;;;;;;;;;;5034014;28;20017;-76
2021/07/16 01:20:16;;;;;;;4.32;3.50;;;;;;;;;;5031680;28;20388;-76
2021/07/16 01:22:43;;;;;;;3.65;3.35;;;;;;;;;;5013579;28;20026;-76
2021/07/16 01:25:17;;;;;;;3.72;3.13;;;;;;;;;;5031310;28;20029;-76
2021/07/16 01:27:44;;;;;;;3.55;3.25;;;;;;;;;;5025819;28;20120;-76
2021/07/16 01:30:12;;;;;;;3.80;3.50;;;;;;;;;;5051260;28;20087;-76
2021/07/16 01:32:38;;;;;;;3.70;3.40;;;;;;;;;;5051558;28;20079;-76
2021/07/16 01:35:06;;;;;;;3.95;3.20;;;;;;;;;;5051039;28;20078;-76
2021/07/16 01:37:32;;;;;;;3.40;3.10;;;;;;;;;;5047294;28;20530;-76
2021/07/16 01:39:59;;;;;;;3.25;2.83;;;;;;;;;;5040627;28;20021;-76
2021/07/16 01:42:33;;;;;;;3.25;2.95;;;;;;;;;;5054381;28;20107;-76
2021/07/16 01:45:00;;;;;;;3.35;3.00;;;;;;;;;;5036739;28;20057;-76
2021/07/16 01:47:26;;;;;;;3.10;2.80;;;;;;;;;;5054802;28;20399;-76
2021/07/16 01:49:52;;;;;;;4.10;3.50;;;;;;;;;;5054785;28;20104;-76
2021/07/16 01:52:19;;;;;;;4.32;3.13;;;;;;;;;;5054266;28;20036;-76
2021/07/16 01:54:45;;;;;;;3.58;2.88;;;;;;;;;;5054418;28;20518;-76
2021/07/16 01:57:11;;;;;;;2.75;2.55;;;;;;;;;;5034767;28;20033;-76
2021/07/16 01:59:37;;;;;;;3.38;3.08;;;;;;;;;;5034703;28;20056;-76
2021/07/16 02:02:03;;;;;;;3.65;2.95;;;;;;;;;;5034233;28;20017;-76
2021/07/16 02:04:29;;;;;;;4.05;3.38;;;;;;;;;;5034453;28;20025;-76
2021/07/16 02:06:57;;;;;;;3.95;3.10;;;;;;;;;;5016948;28;20064;-76
2021/07/16 02:09:23;;;;;;;3.95;3.38;;;;;;;;;;5034846;28;20036;-76
2021/07/16 02:11:49;;;;;;;3.25;2.95;;;;;;;;;;5034125;28;20048;-76
2021/07/16 02:14:15;;;;;;;2.92;2.65;;;;;;;;;;5034874;28;20113;-76
2021/07/16 02:16:41;;;;;;;3.03;2.78;;;;;;;;;;5042255;28;20025;-76
2021/07/16 02:19:07;;;;;;;3.38;3.05;;;;;;;;;;5054722;28;20052;-76
2021/07/16 02:21:34;;;;;;;3.13;2.83;;;;;;;;;;5053972;28;20071;-76
2021/07/16 02:24:00;;;;;;;3.40;2.88;;;;;;;;;;5054014;28;20049;-76
2021/07/16 02:26:26;;;;;;;3.10;2.80;;;;;;;;;;5034181;28;20500;-76
2021/07/16 02:28:52;;;;;;;3.85;3.35;;;;;;;;;;5063959;28;20125;-76
2021/07/16 02:31:18;;;;;;;4.75;2.60;;;;;;;;;;5073816;28;20024;-76
2021/07/16 02:33:44;;;;;;;4.38;3.20;;;;;;;;;;5056014;28;20552;-76
2021/07/16 02:36:11;;;;;;;3.45;2.78;;;;;;;;;;5073891;28;20016;-76
2021/07/16 02:38:37;;;;;;;2.90;2.70;;;;;;;;;;5074112;28;20132;-76
2021/07/16 02:41:03;;;;;;;3.97;2.65;;;;;;;;;;5073788;28;20401;-76
2021/07/16 02:43:29;;;;;;;2.88;2.55;;;;;;;;;;5073907;28;20403;-76
2021/07/16 02:45:55;;;;;;;4.75;3.05;;;;;;;;;;5073695;28;20350;-76
2021/07/16 02:48:21;;;;;;;3.60;2.92;;;;;;;;;;5073680;28;20154;-76
2021/07/16 02:50:48;;;;;;;3.03;2.70;;;;;;;;;;5056000;28;20033;-76
2021/07/16 02:53:20;;;;;;;3.88;3.33;;;;;;;;;;5073225;28;20030;-76
2021/07/16 02:55:47;;;;;;;3.22;2.92;;;;;;;;;;5073713;28;20039;-76
2021/07/16 02:58:13;;;;;;;3.97;2.95;;;;;;;;;;5073685;28;20134;-76
2021/07/16 03:00:39;;;;;;;4.28;3.15;;;;;;;;;;5059756;28;20108;-76
2021/07/16 03:03:05;;;;;;;3.47;3.13;;;;;;;;;;5035755;28;20423;-76
2021/07/16 03:05:34;;;;;;;3.92;2.75;;;;;;;;;;5035667;28;20476;-76
2021/07/16 03:08:00;;;;;;;2.90;2.65;;;;;;;;;;5053300;28;20108;-77
2021/07/16 03:10:47;;;;;;;3.33;3.03;;;;;;;;;;5053590;28;20065;-77
2021/07/16 03:13:14;;;;;;;3.25;2.95;;;;;;;;;;5053693;28;20025;-77
2021/07/16 03:15:41;;;;;;;3.67;3.10;;;;;;;;;;5035306;28;20037;-77
2021/07/16 03:18:07;;;;;;;2.60;2.40;;;;;;;;;;5033216;28;20112;-77
2021/07/16 03:20:45;;;;;;;3.33;2.70;;;;;;;;;;5041325;28;20029;-77
2021/07/16 03:23:11;;;;;;;4.00;3.05;;;;;;;;;;5051139;28;20033;-77
2021/07/16 03:25:38;;;;;;;2.90;2.58;;;;;;;;;;5051291;28;20046;-77
2021/07/16 03:28:05;;;;;;;2.83;2.60;;;;;;;;;;5051051;28;20025;-77
2021/07/16 03:30:31;;;;;;;2.90;2.65;;;;;;;;;;5052786;28;20032;-77
2021/07/16 03:32:58;;;;;;;4.28;2.83;;;;;;;;;;5038358;28;20098;-77
2021/07/16 03:35:25;;;;;;;3.05;2.75;;;;;;;;;;5033016;28;20091;-77
2021/07/16 03:37:52;;;;;;;3.78;2.88;;;;;;;;;;5038723;28;20017;-77
2021/07/16 03:40:22;;;;;;;2.90;2.53;;;;;;;;;;5052185;28;20584;-77
2021/07/16 03:42:48;;;;;;;2.70;2.50;;;;;;;;;;5053203;28;20396;-77
2021/07/16 03:45:15;;;;;;;4.35;2.95;;;;;;;;;;5052760;28;20060;-77
2021/07/16 03:47:42;;;;;;;2.53;2.33;;;;;;;;;;5034367;28;20104;-76
2021/07/16 03:50:09;;;;;;;2.72;2.42;;;;;;;;;;5052634;28;20025;-76
2021/07/16 03:52:35;;;;;;;4.18;2.80;;;;;;;;;;5052501;28;20035;-76
2021/07/16 03:55:05;;;;;;;3.58;2.80;;;;;;;;;;5052702;28;20507;-76
2021/07/16 03:57:31;;;;;;;3.00;2.70;;;;;;;;;;5052353;28;20025;-76
2021/07/16 04:00:01;;;;;;;3.45;2.55;;;;;;;;;;5052425;28;20028;-76
2021/07/16 04:02:27;;;;;;;3.15;2.83;;;;;;;;;;5052061;28;20060;-76
2021/07/16 04:04:54;;;;;;;3.45;2.80;;;;;;;;;;5040594;28;20067;-76
2021/07/16 04:07:25;;;;;;;2.50;2.30;;;;;;;;;;5014544;28;20385;-76
2021/07/16 04:09:51;;;;;;;2.90;2.60;;;;;;;;;;5032236;28;20567;-76
2021/07/16 04:12:18;;;;;;;2.63;2.40;;;;;;;;;;5032097;28;20124;-76
2021/07/16 04:14:46;;;;;;;2.83;2.63;;;;;;;;;;5032545;28;20029;-76
2021/07/16 04:17:16;;;;;;;2.55;2.25;;;;;;;;;;5044070;28;20027;-76
2021/07/16 04:19:43;;;;;;;2.53;2.33;;;;;;;;;;5052066;28;20021;-76
2021/07/16 04:22:09;;;;;;;2.60;2.40;;;;;;;;;;5051811;28;20511;-76
2021/07/16 04:24:36;;;;;;;2.90;2.53;;;;;;;;;;5051966;28;20033;-77
2021/07/16 04:27:02;;;;;;;2.85;2.47;;;;;;;;;;5045232;28;20032;-77
2021/07/16 04:29:28;;;;;;;3.30;2.92;;;;;;;;;;5032135;28;20026;-77
2021/07/16 04:31:55;;;;;;;2.97;2.38;;;;;;;;;;5031770;28;20045;-77
2021/07/16 04:34:21;;;;;;;3.42;2.35;;;;;;;;;;5032315;28;20044;-77
2021/07/16 04:36:47;;;;;;;2.72;2.53;;;;;;;;;;5039232;28;20025;-77
2021/07/16 04:39:13;;;;;;;3.67;2.22;;;;;;;;;;5033855;28;20097;-77
2021/07/16 04:41:39;;;;;;;2.67;2.47;;;;;;;;;;5031683;28;20285;-77
2021/07/16 04:44:05;;;;;;;2.40;2.15;;;;;;;;;;5032033;28;20026;-77
2021/07/16 04:46:31;;;;;;;2.78;2.50;;;;;;;;;;5031993;28;20474;-77
2021/07/16 04:48:57;;;;;;;2.25;2.05;;;;;;;;;;5032023;28;20029;-77
2021/07/16 04:51:27;;;;;;;3.28;2.40;;;;;;;;;;5031352;28;20052;-77
2021/07/16 04:53:54;;;;;;;3.00;2.70;;;;;;;;;;5031852;28;20116;-76
2021/07/16 04:56:20;;;;;;;2.30;2.00;;;;;;;;;;5031386;28;20096;-76
2021/07/16 04:58:46;;;;;;;2.53;2.22;;;;;;;;;;5031699;28;20071;-76
2021/07/16 05:01:12;;;;;;;3.13;2.53;;;;;;;;;;5031104;28;20350;-76
2021/07/16 05:03:38;;;;;;;2.42;2.15;;;;;;;;;;5031882;28;20030;-76
2021/07/16 05:06:05;;;;;;;2.85;2.30;;;;;;;;;;5031714;28;20112;-76
2021/07/16 05:08:31;;;;;;;3.33;1.95;;;;;;;;;;5034915;28;20024;-76
2021/07/16 05:10:57;;;;;;;2.53;2.15;;;;;;;;;;5051187;28;20126;-76
2021/07/16 05:13:25;;;;;;;2.53;2.03;;;;;;;;;;5033671;28;20380;-76
2021/07/16 05:15:51;;;;;;;2.58;1.95;;;;;;;;;;5052180;28;20024;-76
2021/07/16 05:18:17;;;;;;;2.42;2.22;;;;;;;;;;5035225;28;20100;-76
2021/07/16 05:20:44;;;;;;;4.03;2.25;;;;;;;;;;5035110;28;20032;-76
2021/07/16 05:23:10;;;;;;;2.42;2.05;;;;;;;;;;5046604;28;20400;-76
2021/07/16 05:25:36;;;;;;;3.42;2.30;;;;;;;;;;5055481;28;20052;-76
2021/07/16 05:28:02;;;;;;;1.90;1.80;;;;;;;;;;5054739;28;20029;-76
2021/07/16 05:30:29;;;;;;;2.95;1.98;;;;;;;;;;5055973;28;20032;-76
2021/07/16 05:32:55;;;;;;;2.50;2.30;;;;;;;;;;5055644;28;20442;-76
2021/07/16 05:35:22;;;;;;;2.97;2.35;;;;;;;;;;5055420;28;20032;-76
2021/07/16 05:37:48;;;;;;;2.90;2.00;;;;;;;;;;5031026;28;20480;-76
2021/07/16 05:40:15;;;;;;;2.50;2.17;;;;;;;;;;5034969;28;20037;-76
2021/07/16 05:42:42;;;;;;;2.83;2.08;;;;;;;;;;5054014;28;20139;-76
2021/07/16 05:45:08;;;;;;;2.00;1.90;;;;;;;;;;5055172;28;20021;-76
2021/07/16 05:47:34;;;;;;;2.45;2.10;;;;;;;;;;5054664;28;20381;-76
2021/07/16 05:50:00;;;;;;;2.50;1.98;;;;;;;;;;5054666;28;20056;-76
2021/07/16 05:52:28;;;;;;;2.63;2.10;;;;;;;;;;5054400;28;20075;-76
2021/07/16 05:54:55;;;;;;;3.97;2.15;;;;;;;;;;5036907;28;20044;-76
2021/07/16 05:57:21;;;;;;;2.33;2.13;;;;;;;;;;5054822;28;20013;-76
2021/07/16 05:59:47;;;;;;;2.70;1.90;;;;;;;;;;5054644;28;20029;-76
2021/07/16 06:02:13;;;;;;;2.28;1.90;;;;;;;;;;5054228;28;20048;-76
2021/07/16 06:04:39;;;;;;;2.15;1.90;;;;;;;;;;5054572;28;20556;-76
2021/07/16 06:07:05;;;;;;;2.50;2.30;;;;;;;;;;5054330;28;20025;-76
2021/07/16 06:09:31;;;;;;;3.60;2.10;;;;;;;;;;5054643;28;20033;-76
2021/07/16 06:11:57;;;;;;;3.95;1.73;;;;;;;;;;5054176;28;20561;-76
2021/07/16 06:14:23;;;;;;;2.45;1.90;;;;;;;;;;5068512;28;20057;-77
2021/07/16 06:16:50;;;;;;;2.10;1.90;;;;;;;;;;5064927;28;20025;-77
2021/07/16 06:19:16;;;;;;;2.28;2.05;;;;;;;;;;5054297;28;20029;-77
2021/07/16 06:21:43;;;;;;;2.72;2.10;;;;;;;;;;5053979;28;20075;-76
2021/07/16 06:24:09;;;;;;;2.30;1.85;;;;;;;;;;5054219;28;20063;-76
2021/07/16 06:26:35;;;;;;;3.35;1.90;;;;;;;;;;5049941;28;20071;-76
2021/07/16 06:29:06;;;;;;;2.60;1.90;;;;;;;;;;5034167;28;20053;-76
2021/07/16 06:31:33;;;;;;;5.47;3.17;;;;;;;;;;5033898;28;20053;-76
2021/07/16 06:33:59;;;;;;;4.05;2.55;;;;;;;;;;5034258;28;20404;-76
2021/07/16 06:36:25;;;;;;;4.63;2.33;;;;;;;;;;5033953;28;20076;-75
2021/07/16 06:38:51;;;;;;;3.15;2.35;;;;;;;;;;5030796;28;20079;-75
2021/07/16 06:41:18;;;;;;;8.05;2.33;;;;;;;;;;5053218;28;20025;-75
2021/07/16 06:43:44;;;;;;;4.03;2.20;;;;;;;;;;5036254;28;20051;-75
2021/07/16 06:46:12;;;;;;;2.65;2.22;;;;;;;;;;5053395;28;20045;-75
2021/07/16 06:48:42;;;;;;;4.57;2.28;;;;;;;;;;5054283;28;20029;-75
2021/07/16 06:51:08;;;;;;;3.38;2.17;;;;;;;;;;5053774;28;20048;-75
2021/07/16 06:53:34;;;;;;;2.85;2.25;;;;;;;;;;5035846;28;20041;-76
2021/07/16 06:56:00;;;;;;;5.88;2.35;;;;;;;;;;5053831;28;20033;-76
2021/07/16 06:58:26;;;;;;;4.43;2.35;;;;;;;;;;5052308;28;20491;-76
2021/07/16 07:00:52;;;;;;;4.10;2.40;;;;;;;;;;5051991;28;20025;-76
2021/07/16 07:03:19;;;;;;;5.45;2.38;;;;;;;;;;5053150;28;20025;-75
2021/07/16 07:05:45;;;;;;;2.70;2.45;;;;;;;;;;5053755;28;20108;-75
2021/07/16 07:08:11;;;;;;;5.40;2.20;;;;;;;;;;5053242;28;20040;-75
2021/07/16 07:10:37;;;;;;;3.05;2.47;;;;;;;;;;5053085;28;20029;-75
2021/07/16 07:13:06;;;;;;;2.63;2.20;;;;;;;;;;5059654;28;20037;-78
2021/07/16 07:15:35;;;;;;;3.55;2.53;;;;;;;;;;5043919;28;20025;-78
2021/07/16 07:18:01;;;;;;;5.05;2.50;;;;;;;;;;5066483;28;20029;-79
2021/07/16 07:20:28;;;;;;;3.65;2.28;;;;;;;;;;5046816;28;20088;-78
2021/07/16 07:22:54;;;;;;;3.33;2.50;;;;;;;;;;5047764;28;20030;-80
2021/07/16 07:25:20;;;;;;;4.05;2.40;;;;;;;;;;5046098;28;20037;-79
2021/07/16 07:27:46;;;;;;;4.82;2.13;;;;;;;;;;5048233;28;20028;-76
2021/07/16 07:30:12;;;;;;;4.60;2.13;;;;;;;;;;5034348;28;20499;-76
2021/07/16 07:32:38;;;;;;;6.05;2.60;;;;;;;;;;5052492;28;20476;-76
2021/07/16 07:35:05;;;;;;;3.08;2.45;;;;;;;;;;5014848;28;20116;-76
2021/07/16 07:37:31;;;;;;;6.65;2.28;;;;;;;;;;5043190;28;20029;-76
2021/07/16 07:39:57;;;;;;;3.40;2.05;;;;;;;;;;5041228;28;20074;-77
2021/07/16 07:42:25;;;;;;;3.20;2.20;;;;;;;;;;5029478;28;20509;-77
2021/07/16 07:44:52;;;;;;;2.85;2.50;;;;;;;;;;5047256;28;20024;-78
2021/07/16 07:47:18;;;;;;;2.42;2.10;;;;;;;;;;5062182;28;20032;-78
2021/07/16 07:49:44;;;;;;;3.78;2.45;;;;;;;;;;5055084;28;20038;-78
2021/07/16 07:52:10;;;;;;;3.10;2.13;;;;;;;;;;5060159;28;20033;-78
2021/07/16 07:54:36;;;;;;;2.75;2.05;;;;;;;;;;5074651;28;20265;-76
2021/07/16 07:57:02;;;;;;;5.47;2.00;;;;;;;;;;5061504;28;20032;-76
2021/07/16 07:59:28;;;;;;;2.65;2.30;;;;;;;;;;5051865;28;20031;-76
2021/07/16 08:01:55;;;;;;;2.28;2.08;;;;;;;;;;5033081;28;20040;-76
2021/07/16 08:04:21;;;;;;;2.53;2.00;;;;;;;;;;5051322;28;20689;-76
2021/07/16 08:06:47;;;;;;;4.45;2.00;;;;;;;;;;5050214;28;20507;-77
2021/07/16 08:09:14;;;;;;;3.42;1.80;;;;;;;;;;5051437;28;20033;-77
2021/07/16 08:11:40;;;;;;;3.75;2.20;;;;;;;;;;5046240;28;20404;-77
2021/07/16 08:14:06;;;;;;;19.65;2.53;;;;;;;;;;5026113;28;20032;-77
2021/07/16 08:16:32;;;;;;;4.57;2.20;;;;;;;;;;5051655;28;20089;-77
2021/07/16 08:18:58;;;;;;;7.32;1.90;;;;;;;;;;5055240;28;20017;-77
2021/07/16 08:21:24;;;;;;;6.03;2.58;;;;;;;;;;5046931;28;20060;-77
2021/07/16 08:23:51;;;;;;;4.55;2.28;;;;;;;;;;5015328;28;20111;-77
2021/07/16 08:26:18;;;;;;;5.93;2.15;;;;;;;;;;5043574;28;20029;-77
2021/07/16 08:28:45;;;;;;;2.78;2.03;;;;;;;;;;5052781;28;20029;-77
2021/07/16 08:31:11;;;;;;;6.03;1.67;;;;;;;;;;5051457;28;20067;-76
2021/07/16 08:33:37;;;;;;;2.10;1.70;;;;;;;;;;5033599;28;20511;-76
2021/07/16 08:36:03;;;;;;;2.00;1.80;;;;;;;;;;5052275;28;20028;-75
2021/07/16 08:38:29;;;;;;;4.50;2.20;;;;;;;;;;5056658;28;20027;-75
2021/07/16 08:40:55;;;;;;;5.70;2.30;;;;;;;;;;5043244;28;20078;-75
2021/07/16 08:43:23;;;;;;;3.58;1.90;;;;;;;;;;5055203;28;20017;-75
2021/07/16 08:45:51;;;;;;;3.33;2.25;;;;;;;;;;5072493;28;20063;-76
2021/07/16 08:48:17;;;;;;;3.60;2.15;;;;;;;;;;5056747;28;20060;-75
2021/07/16 08:50:43;;;;;;;2.63;2.05;;;;;;;;;;5034018;28;20108;-75
2021/07/16 08:53:12;;;;;;;9.55;2.25;;;;;;;;;;5051853;28;20036;-75
2021/07/16 08:55:41;;;;;;;2.65;2.17;;;;;;;;;;5051656;28;20032;-75
2021/07/16 08:58:07;;;;;;;2.65;1.52;;;;;;;;;;5051004;28;20065;-75
2021/07/16 09:00:35;;;;;;;3.58;1.85;;;;;;;;;;5032195;28;20072;-75
2021/07/16 09:03:01;;;;;;;5.45;2.30;;;;;;;;;;5026317;28;20044;-75
2021/07/16 09:05:32;;;;;;;3.88;1.60;;;;;;;;;;5034274;28;20027;-75
2021/07/16 09:07:59;;;;;;;3.50;1.95;;;;;;;;;;5052191;28;20070;-76
2021/07/16 09:10:27;;;;;;;3.97;2.05;;;;;;;;;;5066674;28;20446;-76
2021/07/16 09:13:03;;;;;;;2.42;2.00;;;;;;;;;;5072027;28;20032;-76
2021/07/16 09:15:29;;;;;;;3.78;1.80;;;;;;;;;;5065738;28;20025;-76
2021/07/16 09:18:12;;;;;;;5.25;2.00;;;;;;;;;;5031374;28;20120;-76
2021/07/16 09:20:38;;;;;;;2.63;2.38;;;;;;;;;;5034663;28;20024;-76
2021/07/16 09:23:22;;;;;;;5.55;1.52;;;;;;;;;;5051633;28;20123;-76
2021/07/16 09:26:02;;;;;;;2.05;1.52;;;;;;;;;;5052097;28;20483;-75
2021/07/16 09:28:28;;;;;;;2.00;1.80;;;;;;;;;;5034230;28;20481;-77
2021/07/16 09:31:08;;;;;;;3.28;1.83;;;;;;;;;;5051735;28;20511;-77
2021/07/16 09:33:40;;;;;;;3.20;1.90;;;;;;;;;;5051802;28;20055;-76
2021/07/16 09:36:06;;;;;;;2.05;1.90;;;;;;;;;;5040502;28;20025;-78
2021/07/16 09:38:34;;;;;;;3.38;2.00;;;;;;;;;;5039564;28;20034;-77
2021/07/16 09:41:05;;;;;;;2.75;1.63;;;;;;;;;;5040814;28;20021;-76
2021/07/16 09:43:32;;;;;;;5.32;1.88;;;;;;;;;;5051434;28;20029;-76
2021/07/16 09:46:03;;;;;;;1.80;1.70;;;;;;;;;;5033700;28;20112;-76
2021/07/16 09:48:33;;;;;;;3.00;1.92;;;;;;;;;;5052624;28;20426;-77
2021/07/16 09:51:08;;;;;;;3.22;1.67;;;;;;;;;;5053121;28;20022;-77
2021/07/16 09:53:54;;;;;;;2.53;1.63;;;;;;;;;;5034361;28;20621;-77
2021/07/16 09:56:25;;;;;;;2.13;1.88;;;;;;;;;;5050733;28;20106;-76
2021/07/16 09:59:01;;;;;;;2.10;1.90;;;;;;;;;;5048677;28;20025;-77
2021/07/16 10:01:28;;;;;;;2.20;2.00;;;;;;;;;;5051311;28;20037;-77
2021/07/16 10:03:54;;;;;;;2.95;2.03;;;;;;;;;;5053923;28;20029;-76
2021/07/16 10:06:21;;;;;;;3.22;2.10;;;;;;;;;;5055053;28;20028;-77
2021/07/16 10:08:48;;;;;;;3.33;1.88;;;;;;;;;;5055312;28;20039;-76
2021/07/16 10:11:19;;;;;;;2.42;1.60;;;;;;;;;;5054126;28;20071;-76
2021/07/16 10:13:46;;;;;;;3.28;1.85;;;;;;;;;;5054932;28;20076;-76
2021/07/16 10:16:14;;;;;;;1.60;1.50;;;;;;;;;;5052164;28;20473;-76
2021/07/16 10:18:41;;;;;;;2.08;1.60;;;;;;;;;;5054684;28;20028;-77
2021/07/16 10:21:07;;;;;;;3.85;1.90;;;;;;;;;;5054676;28;20028;-76
2021/07/16 10:23:33;;;;;;;3.60;1.65;;;;;;;;;;5054711;28;20056;-77
2021/07/16 10:26:01;;;;;;;2.00;1.80;;;;;;;;;;5037085;28;20025;-76
2021/07/16 10:28:41;;;;;;;2.78;1.60;;;;;;;;;;5036364;28;20461;-76
2021/07/16 10:31:25;;;;;;;2.78;1.77;;;;;;;;;;5029563;28;20028;-78
2021/07/16 10:33:51;;;;;;;3.53;1.63;;;;;;;;;;5042936;28;20037;-78
2021/07/16 10:36:37;;;;;;;3.05;1.60;;;;;;;;;;5037002;28;20032;-77
2021/07/16 10:39:08;;;;;;;4.03;1.60;;;;;;;;;;5020692;28;20025;-76
2021/07/16 10:41:38;;;;;;;1.95;1.75;;;;;;;;;;5034177;28;20056;-76
2021/07/16 10:44:07;;;;;;;2.50;1.58;;;;;;;;;;5034422;28;20060;-76
2021/07/16 10:46:35;;;;;;;3.13;1.83;;;;;;;;;;5034618;28;20025;-76
2021/07/16 10:49:01;;;;;;;4.13;2.03;;;;;;;;;;5034570;28;20541;-77
2021/07/16 10:51:29;;;;;;;2.45;1.80;;;;;;;;;;5034215;28;20021;-77
2021/07/16 10:53:56;;;;;;;2.25;1.80;;;;;;;;;;5034245;28;20090;-77
2021/07/16 10:56:36;;;;;;;3.38;1.95;;;;;;;;;;5051024;28;20025;-76
2021/07/16 10:59:02;;;;;;;2.08;1.88;;;;;;;;;;5055865;28;20025;-78
2021/07/16 11:01:36;;;;;;;1.50;1.40;;;;;;;;;;5055058;28;20021;-77
2021/07/16 11:04:05;;;;;;;2.38;1.67;;;;;;;;;;5023638;28;20033;-77
2021/07/16 11:06:54;;;;;;;4.38;1.77;;;;;;;;;;5034591;28;20052;-75
2021/07/16 11:09:37;;;;;;;2.60;1.77;;;;;;;;;;5016567;28;20040;-75
2021/07/16 11:12:19;;;;;;;1.98;1.77;;;;;;;;;;5034562;28;20043;-77
2021/07/16 11:14:45;;;;;;;1.90;1.70;;;;;;;;;;5021601;28;20071;-78
2021/07/16 11:17:24;;;;;;;1.95;1.75;;;;;;;;;;5036824;28;20025;-78
2021/07/16 11:20:09;;;;;;;2.90;2.10;;;;;;;;;;5042902;28;20115;-77
2021/07/16 11:22:35;;;;;;;2.53;1.85;;;;;;;;;;5060579;28;20017;-78
2021/07/16 11:25:01;;;;;;;4.15;1.60;;;;;;;;;;5054693;28;20049;-77
2021/07/16 11:27:27;;;;;;;1.85;1.65;;;;;;;;;;5047715;28;20025;-78
2021/07/16 11:29:53;;;;;;;1.70;1.50;;;;;;;;;;5056619;28;20450;-77
2021/07/16 11:32:24;;;;;;;2.30;1.80;;;;;;;;;;5037024;28;20021;-77
2021/07/16 11:34:51;;;;;;;2.75;1.80;;;;;;;;;;5054472;28;20020;-78
2021/07/16 11:37:25;;;;;;;2.15;1.60;;;;;;;;;;5029373;28;20083;-79
2021/07/16 11:40:00;;;;;;;3.17;2.05;;;;;;;;;;5044269;28;20053;-79
2021/07/16 11:42:26;;;;;;;1.63;1.50;;;;;;;;;;5044270;28;20097;-77
2021/07/16 11:44:52;;;;;;;2.08;1.52;;;;;;;;;;5061219;28;20120;-80
2021/07/16 11:47:18;;;;;;;2.92;1.75;;;;;;;;;;5047202;28;20033;-79
2021/07/16 11:49:45;;;;;;;3.08;1.58;;;;;;;;;;5058037;28;20039;-79
2021/07/16 11:52:14;;;;;;;2.10;1.77;;;;;;;;;;5039036;28;20372;-78
2021/07/16 11:54:40;;;;;;;2.38;1.50;;;;;;;;;;5058419;28;20049;-81
2021/07/16 11:57:07;;;;;;;1.60;1.50;;;;;;;;;;5066711;28;20150;-79
2021/07/16 11:59:33;;;;;;;1.67;1.58;;;;;;;;;;5063428;28;20052;-79
2021/07/16 12:02:05;;;;;;;2.92;1.77;;;;;;;;;;5039914;28;20017;-81
2021/07/16 12:04:31;;;;;;;1.63;1.52;;;;;;;;;;5057028;28;20075;-78
2021/07/16 12:06:57;;;;;;;1.65;1.55;;;;;;;;;;5055080;28;20029;-78
2021/07/16 12:09:39;;;;;;;1.70;1.60;;;;;;;;;;5039243;28;20059;-78
2021/07/16 12:12:12;;;;;;;1.67;1.58;;;;;;;;;;5022249;28;20029;-79
2021/07/16 12:14:54;;;;;;;2.35;1.50;;;;;;;;;;5055250;28;20077;-78
2021/07/16 12:17:28;;;;;;;5.18;2.00;;;;;;;;;;5024742;28;20057;-79
2021/07/16 12:19:55;;;;;;;10.60;1.75;;;;;;;;;;5043129;28;20040;-80
2021/07/16 12:22:23;;;;;;;4.20;1.90;;;;;;;;;;5063967;28;20028;-79
2021/07/16 12:24:50;;;;;;;3.97;2.10;;;;;;;;;;5040847;28;20049;-78
2021/07/16 12:27:17;;;;;;;4.80;1.92;;;;;;;;;;5033678;28;20028;-80
2021/07/16 12:29:44;;;;;;;5.90;1.88;;;;;;;;;;5043230;28;20060;-80
2021/07/16 12:32:10;;;;;;;1.98;1.60;;;;;;;;;;5059248;28;20365;-79
2021/07/16 12:34:42;;;;;;;1.95;1.65;;;;;;;;;;5051120;28;20092;-77
2021/07/16 12:37:18;;;;;;;4.80;1.48;;;;;;;;;;5052035;28;20028;-77
2021/07/16 12:39:45;;;;;;;5.03;1.73;;;;;;;;;;5033870;28;20017;-78
2021/07/16 12:42:17;;;;;;;2.88;1.70;;;;;;;;;;5052650;28;20017;-78
2021/07/16 12:45:02;;;;;;;4.32;2.00;;;;;;;;;;5055334;28;20028;-82
2021/07/16 12:47:28;;;;;;;2.33;1.80;;;;;;;;;;5036594;28;20030;-77
2021/07/16 12:50:07;;;;;;;2.80;1.60;;;;;;;;;;5054296;28;20033;-80
2021/07/16 12:52:33;;;;;;;3.15;1.55;;;;;;;;;;5054827;28;20032;-78
2021/07/16 12:55:12;;;;;;;4.90;1.73;;;;;;;;;;5037008;28;20554;-80
2021/07/16 12:57:38;;;;;;;2.22;1.83;;;;;;;;;;5051489;28;20025;-76
2021/07/16 13:00:18;;;;;;;1.98;1.60;;;;;;;;;;5049699;28;20017;-76
2021/07/16 13:02:45;;;;;;;2.65;1.90;;;;;;;;;;5048874;28;20032;-76
2021/07/16 13:05:11;;;;;;;8.35;1.85;;;;;;;;;;5049754;28;20496;-77
2021/07/16 13:07:38;;;;;;;3.70;1.67;;;;;;;;;;5050082;28;20036;-78
2021/07/16 13:10:21;;;;;;;5.15;1.90;;;;;;;;;;5035286;28;20025;-79
2021/07/16 13:12:47;;;;;;;4.43;1.80;;;;;;;;;;5042890;28;20083;-80
2021/07/16 13:15:13;;;;;;;1.98;1.83;;;;;;;;;;5033536;28;20087;-80
2021/07/16 13:17:39;;;;;;;1.90;1.75;;;;;;;;;;5038150;28;20021;-76
2021/07/16 13:20:06;;;;;;;3.30;1.42;;;;;;;;;;5050247;28;20111;-76
2021/07/16 13:22:33;;;;;;;3.70;1.58;;;;;;;;;;5031845;28;20025;-76
2021/07/16 13:25:00;;;;;;;1.98;1.75;;;;;;;;;;5050428;28;20124;-77
2021/07/16 13:27:27;;;;;;;4.10;2.22;;;;;;;;;;5040810;28;20030;-77
2021/07/16 13:29:53;;;;;;;6.75;1.90;;;;;;;;;;5046544;28;20040;-78
2021/07/16 13:32:20;;;;;;;2.63;1.70;;;;;;;;;;5054944;28;20507;-80
2021/07/16 13:34:46;;;;;;;2.35;1.90;;;;;;;;;;5037023;28;20033;-78
2021/07/16 13:37:12;;;;;;;3.72;1.90;;;;;;;;;;5034044;28;20021;-77
2021/07/16 13:39:39;;;;;;;2.15;1.95;;;;;;;;;;5034774;28;20017;-77
2021/07/16 13:42:05;;;;;;;3.42;1.58;;;;;;;;;;5044944;28;20476;-77
2021/07/16 13:44:32;;;;;;;2.25;1.90;;;;;;;;;;5053853;28;20507;-77
2021/07/16 13:46:58;;;;;;;2.10;1.65;;;;;;;;;;5054100;28;20025;-77
2021/07/16 13:49:24;;;;;;;3.00;2.08;;;;;;;;;;5054104;28;20017;-77
2021/07/16 13:51:51;;;;;;;3.85;2.00;;;;;;;;;;5058534;28;20064;-79
2021/07/16 13:54:17;;;;;;;1.98;1.77;;;;;;;;;;5058179;28;20029;-79
2021/07/16 13:56:43;;;;;;;2.10;1.90;;;;;;;;;;5057678;28;20021;-79
2021/07/16 13:59:09;;;;;;;3.03;2.10;;;;;;;;;;5057652;28;20028;-78
2021/07/16 14:01:35;;;;;;;3.45;1.98;;;;;;;;;;5058822;28;20376;-79
2021/07/16 14:04:01;;;;;;;2.67;1.77;;;;;;;;;;5058918;28;20112;-79
2021/07/16 14:06:27;;;;;;;1.88;1.70;;;;;;;;;;5056581;28;20032;-78
2021/07/16 14:08:53;;;;;;;1.90;1.70;;;;;;;;;;5055282;28;20029;-80
2021/07/16 14:11:19;;;;;;;1.83;1.50;;;;;;;;;;5049531;28;20216;-75
2021/07/16 14:13:45;;;;;;;3.13;1.80;;;;;;;;;;5034871;28;20028;-78
2021/07/16 14:16:11;;;;;;;1.77;1.63;;;;;;;;;;5053325;28;20104;-78
2021/07/16 14:18:38;;;;;;;3.45;1.80;;;;;;;;;;5054720;28;20136;-78
2021/07/16 14:21:04;;;;;;;3.00;1.60;;;;;;;;;;5055732;28;20028;-78
2021/07/16 14:23:30;;;;;;;2.90;1.75;;;;;;;;;;5040558;28;20052;-80
2021/07/16 14:25:56;;;;;;;1.88;1.70;;;;;;;;;;5059022;28;20029;-80
2021/07/16 14:28:22;;;;;;;2.55;2.00;;;;;;;;;;5055514;28;20032;-77
2021/07/16 14:30:51;;;;;;;2.80;1.75;;;;;;;;;;5051991;28;20123;-77
2021/07/16 14:33:17;;;;;;;2.38;1.67;;;;;;;;;;5052965;28;20033;-77
2021/07/16 14:35:43;;;;;;;2.70;1.67;;;;;;;;;;5052675;28;20419;-78
2021/07/16 14:38:09;;;;;;;3.78;1.90;;;;;;;;;;5034455;28;20026;-78
2021/07/16 14:40:36;;;;;;;2.15;1.73;;;;;;;;;;5021362;28;20041;-80
2021/07/16 14:43:02;;;;;;;3.30;1.90;;;;;;;;;;5041371;28;20014;-80
2021/07/16 14:45:28;;;;;;;3.13;1.83;;;;;;;;;;5038154;28;20099;-77
2021/07/16 14:47:54;;;;;;;2.08;1.50;;;;;;;;;;5032345;28;20057;-76